Time;durP1;ratioP1;P1;durP2;ratioP2;P2;SDS_P1;SDS_P2;PMS_P1;PMS_P2;Temp;Humidity;BMP_temperature;BMP_pressure;BME280_temperature;BME280_humidity;BME280_pressure;Samples;Min_cycle;Max_cycle;Signal;HPM_P1;HPM_P2
2023/10/18 00:00:34;;;;;;;5.60;3.97;;;;;;;10.96;83.41;95009.81;5070227;28;20190;-70
2023/10/18 00:03:04;;;;;;;5.30;3.63;;;;;;;10.94;83.25;95003.94;5070230;28;20649;-70
2023/10/18 00:05:31;;;;;;;4.68;3.80;;;;;;;10.85;83.86;94986.75;5069209;28;20471;-70
2023/10/18 00:07:57;;;;;;;5.50;3.80;;;;;;;10.88;85.09;94996.88;5068936;28;20432;-71
2023/10/18 00:10:27;;;;;;;6.97;3.37;;;;;;;10.77;85.23;94976.44;5064728;28;20639;-71
2023/10/18 00:12:55;;;;;;;5.67;3.50;;;;;;;10.77;85.42;94989.63;5050501;28;20325;-71
2023/10/18 00:15:24;;;;;;;4.83;3.70;;;;;;;10.88;85.65;95010.03;5050369;28;20179;-72
2023/10/18 00:17:51;;;;;;;4.80;3.63;;;;;;;10.83;86.20;95011.66;5050867;28;20266;-71
2023/10/18 00:20:23;;;;;;;4.57;3.47;;;;;;;10.71;86.71;94997.53;5050315;28;20203;-71
2023/10/18 00:22:49;;;;;;;8.67;4.37;;;;;;;10.79;87.45;95002.56;5049372;28;20203;-71
2023/10/18 00:25:16;;;;;;;5.73;3.03;;;;;;;10.67;87.84;94973.44;5049568;28;20198;-70
2023/10/18 00:27:41;;;;;;;3.63;2.90;;;;;;;10.75;87.50;94996.91;5067631;28;20177;-71
2023/10/18 00:30:11;;;;;;;7.63;3.53;;;;;;;10.75;87.83;94988.19;5069679;28;20182;-71
2023/10/18 00:32:37;;;;;;;7.83;4.20;;;;;;;10.41;87.66;94931.41;5069652;28;20175;-71
2023/10/18 00:35:12;;;;;;;7.63;3.47;;;;;;;10.75;87.90;94990.81;5069521;28;20558;-70
2023/10/18 00:37:41;;;;;;;6.00;3.40;;;;;;;10.77;88.58;94986.16;5069410;28;20197;-71
2023/10/18 00:40:09;;;;;;;6.00;4.20;;;;;;;10.75;88.31;94986.38;5053531;28;20437;-71
2023/10/18 00:42:38;;;;;;;6.17;3.80;;;;;;;10.69;88.47;94974.06;5069386;28;20186;-71
2023/10/18 00:45:11;;;;;;;5.77;4.17;;;;;;;10.52;88.66;94950.00;5069604;28;20175;-71
2023/10/18 00:47:38;;;;;;;4.73;3.70;;;;;;;10.59;88.40;94965.78;5069616;28;20178;-71
2023/10/18 00:50:07;;;;;;;5.80;3.60;;;;;;;10.70;88.78;94969.59;5059367;28;20182;-71
2023/10/18 00:52:36;;;;;;;8.30;3.93;;;;;;;10.62;88.90;94977.72;5049481;28;20177;-70
2023/10/18 00:55:02;;;;;;;5.80;3.87;;;;;;;10.66;89.17;94978.91;5062784;28;20190;-71
2023/10/18 00:57:34;;;;;;;5.83;4.03;;;;;;;10.65;89.13;94988.63;5069136;28;20784;-71
2023/10/18 01:00:06;;;;;;;6.77;3.80;;;;;;;10.71;88.70;94995.72;5069389;28;20178;-71
2023/10/18 01:02:39;;;;;;;6.30;3.97;;;;;;;10.41;89.04;94948.03;5069577;28;20174;-71
2023/10/18 01:05:11;;;;;;;5.73;3.90;;;;;;;10.48;89.38;94963.78;5059045;28;20286;-70
2023/10/18 01:07:39;;;;;;;7.00;3.90;;;;;;;10.67;89.33;94986.59;5061293;28;20630;-70
2023/10/18 01:10:07;;;;;;;5.53;3.90;;;;;;;10.46;89.10;94950.84;5069535;28;20249;-71
2023/10/18 01:12:39;;;;;;;7.93;4.40;;;;;;;10.57;89.17;94979.13;5063728;28;20170;-71
2023/10/18 01:15:06;;;;;;;7.28;5.03;;;;;;;10.53;89.14;94977.94;5067987;28;20410;-71
2023/10/18 01:17:42;;;;;;;6.80;4.40;;;;;;;10.42;89.52;94968.06;5069082;28;20192;-71
2023/10/18 01:22:52;;;;;;;9.63;5.30;;;;;;;10.47;89.43;94970.06;5061572;28;20494;-70
2023/10/18 01:25:21;;;;;;;9.90;5.13;;;;;;;10.35;89.57;94966.47;5049159;28;20187;-71
2023/10/18 01:27:46;;;;;;;8.97;5.33;;;;;;;10.49;90.16;94975.94;5049075;28;20237;-71
2023/10/18 01:30:16;;;;;;;9.73;5.97;;;;;;;10.49;88.92;94982.00;5052948;28;20881;-71
2023/10/18 01:32:45;;;;;;;8.43;5.60;;;;;;;10.46;89.12;94979.00;5068988;28;20181;-71
2023/10/18 01:35:15;;;;;;;8.87;5.90;;;;;;;10.43;89.35;94980.22;5070242;28;20206;-71
2023/10/18 01:37:43;;;;;;;8.00;5.40;;;;;;;10.39;90.14;94970.28;5071590;28;20201;-71
2023/10/18 01:40:23;;;;;;;8.03;5.53;;;;;;;10.24;89.66;94938.97;5072952;28;20235;-71
2023/10/18 01:42:55;;;;;;;9.73;6.53;;;;;;;10.39;90.17;94967.66;5073110;28;20207;-71
2023/10/18 01:45:25;;;;;;;8.87;6.10;;;;;;;10.41;90.38;94960.38;5073196;28;20669;-71
2023/10/18 01:47:51;;;;;;;7.80;5.57;;;;;;;10.50;90.00;94961.75;5072916;28;20167;-72
2023/10/18 01:50:18;;;;;;;8.30;5.90;;;;;;;10.53;89.76;94971.88;5061523;28;20309;-71
2023/10/18 01:52:45;;;;;;;9.03;5.87;;;;;;;10.61;89.96;94978.72;5052855;28;20221;-72
2023/10/18 01:55:12;;;;;;;9.90;6.07;;;;;;;10.59;90.24;94979.75;5052757;28;20183;-72
2023/10/18 01:57:45;;;;;;;11.37;7.07;;;;;;;10.56;89.57;94969.63;5051056;28;20234;-70
2023/10/18 02:00:23;;;;;;;10.50;6.63;;;;;;;10.51;89.50;94964.19;5053656;28;20190;-71
2023/10/18 02:02:50;;;;;;;9.47;7.20;;;;;;;10.59;89.96;94981.56;5052882;28;20167;-71
2023/10/18 02:05:19;;;;;;;10.63;6.53;;;;;;;10.64;89.14;94983.59;5052548;28;20627;-71
2023/10/18 02:07:47;;;;;;;11.60;7.53;;;;;;;10.42;88.47;94964.63;5052609;28;20292;-71
2023/10/18 02:10:23;;;;;;;10.90;7.43;;;;;;;10.47;89.21;94978.75;5051490;28;20186;-71
2023/10/18 02:12:48;;;;;;;12.10;7.57;;;;;;;10.31;89.37;94960.78;5071679;28;20174;-71
2023/10/18 02:15:18;;;;;;;11.83;7.27;;;;;;;10.52;89.11;94992.13;5074904;28;20174;-71
2023/10/18 02:17:51;;;;;;;11.60;7.78;;;;;;;10.57;88.51;94992.31;5073176;28;20433;-71
2023/10/18 02:20:27;;;;;;;10.30;6.73;;;;;;;10.56;88.73;94985.41;5073350;28;20265;-71
2023/10/18 02:23:00;;;;;;;10.80;7.20;;;;;;;10.59;89.11;94987.66;5072183;28;20181;-71
2023/10/18 02:25:42;;;;;;;10.73;6.33;;;;;;;10.49;88.28;94965.41;5072094;28;20253;-71
2023/10/18 02:28:33;;;;;;;10.80;6.80;;;;;;;10.55;87.99;94973.28;5072002;28;20224;-70
2023/10/18 02:31:13;;;;;;;12.83;7.50;;;;;;;10.64;87.89;94976.47;5050930;28;20693;-70
2023/10/18 02:33:44;;;;;;;12.57;6.63;;;;;;;10.44;87.93;94952.88;5052209;28;20173;-70
2023/10/18 02:36:11;;;;;;;13.97;7.40;;;;;;;10.63;88.35;94979.34;5052241;28;20584;-70
2023/10/18 02:38:43;;;;;;;11.60;7.70;;;;;;;10.58;88.23;94972.06;5051902;28;20191;-70
2023/10/18 02:41:15;;;;;;;10.67;7.00;;;;;;;10.53;88.11;94967.44;5051950;28;20266;-70
2023/10/18 02:43:48;;;;;;;11.40;7.33;;;;;;;10.61;88.40;94984.00;5063036;28;20183;-70
2023/10/18 02:46:21;;;;;;;9.03;6.37;;;;;;;10.63;88.80;94980.16;5051448;28;20185;-70
2023/10/18 02:48:53;;;;;;;8.85;5.40;;;;;;;10.68;89.33;94977.69;5051370;28;20894;-70
2023/10/18 02:51:23;;;;;;;9.07;5.90;;;;;;;10.50;89.68;94949.41;5051674;28;20183;-72
2023/10/18 02:53:54;;;;;;;8.63;5.37;;;;;;;10.61;90.06;94962.94;5060091;28;20177;-71
2023/10/18 02:56:27;;;;;;;9.20;5.70;;;;;;;10.53;90.16;94953.47;5051421;28;20418;-72
2023/10/18 02:59:06;;;;;;;9.05;5.90;;;;;;;10.57;90.51;94970.44;5050644;28;20443;-72
2023/10/18 03:01:33;;;;;;;18.10;6.33;;;;;;;10.52;90.24;94959.72;5056622;28;20626;-72
2023/10/18 03:04:01;;;;;;;8.90;6.57;;;;;;;10.44;90.54;94959.97;5058140;28;20181;-72
2023/10/18 03:06:34;;;;;;;11.05;6.70;;;;;;;10.50;90.00;94959.94;5051956;28;20560;-72
2023/10/18 03:09:00;;;;;;;8.93;6.82;;;;;;;10.41;89.59;94945.38;5065773;28;20405;-73
2023/10/18 03:11:31;;;;;;;7.83;6.00;;;;;;;10.52;89.67;94975.53;5068384;28;20181;-72
2023/10/18 03:13:57;;;;;;;7.70;5.60;;;;;;;10.12;90.19;94920.31;5068429;28;20320;-72
2023/10/18 03:19:09;;;;;;;10.43;6.63;;;;;;;10.55;89.88;94964.59;5053144;28;21036;-72
2023/10/18 03:21:35;;;;;;;9.50;7.30;;;;;;;10.30;89.97;94922.34;5069915;28;20421;-72
2023/10/18 03:24:01;;;;;;;10.70;6.30;;;;;;;10.51;90.23;94955.47;5052981;28;20277;-72
2023/10/18 03:26:37;;;;;;;9.07;5.90;;;;;;;10.59;89.19;94973.69;5070571;28;20181;-71
2023/10/18 03:29:12;;;;;;;9.60;6.50;;;;;;;10.65;88.98;94972.03;5069958;28;20421;-71
2023/10/18 03:31:43;;;;;;;8.83;6.03;;;;;;;10.59;88.87;94953.44;5070636;28;20189;-72
2023/10/18 03:34:16;;;;;;;7.87;5.67;;;;;;;10.33;89.16;94913.22;5071374;28;20178;-72
2023/10/18 03:37:00;;;;;;;8.20;5.50;;;;;;;10.45;89.10;94932.63;5061246;28;20630;-72
2023/10/18 03:39:26;;;;;;;9.00;5.88;;;;;;;10.60;89.12;94948.97;5057744;28;21187;-71
2023/10/18 03:41:58;;;;;;;8.05;5.72;;;;;;;10.61;88.64;94937.44;5060332;28;20467;-71
2023/10/18 03:44:32;;;;;;;12.10;6.72;;;;;;;10.52;89.30;94928.16;5069337;28;20428;-71
2023/10/18 03:47:05;;;;;;;9.37;5.63;;;;;;;10.45;89.37;94930.00;5060349;28;20179;-71
2023/10/18 03:52:02;;;;;;;8.07;5.60;;;;;;;10.38;89.36;94952.91;5050116;28;20171;-71
2023/10/18 03:54:43;;;;;;;11.90;5.77;;;;;;;10.38;89.40;94955.53;5050182;28;20692;-71
2023/10/18 03:57:19;;;;;;;11.57;6.30;;;;;;;10.27;90.03;94935.94;5049670;28;20262;-71
2023/10/18 03:59:49;;;;;;;9.87;5.63;;;;;;;10.39;90.08;94930.81;5058105;28;20240;-70
2023/10/18 04:04:50;;;;;;;9.60;5.53;;;;;;;10.29;89.71;94920.72;5069959;28;20166;-72
2023/10/18 04:07:24;;;;;;;9.83;5.93;;;;;;;10.37;90.16;94935.50;5069806;28;20174;-71
2023/10/18 04:10:06;;;;;;;7.57;5.33;;;;;;;10.25;90.17;94932.69;5070164;28;20548;-72
2023/10/18 04:12:32;;;;;;;8.77;5.97;;;;;;;10.14;90.44;94913.03;5069849;28;20543;-71
2023/10/18 04:14:59;;;;;;;7.17;5.27;;;;;;;10.33;90.30;94931.66;5069819;28;20293;-72
2023/10/18 04:22:38;;;;;;;8.18;5.70;;;;;;;10.25;90.15;94921.34;5053214;28;20454;-71
2023/10/18 04:27:57;;;;;;;7.50;4.93;;;;;;;10.51;89.20;94939.69;5056103;28;20405;-71
2023/10/18 04:30:23;;;;;;;8.10;5.83;;;;;;;10.52;89.37;94936.03;5068485;28;20523;-72
2023/10/18 04:33:35;;;;;;;8.33;4.87;;;;;;;10.52;89.61;94946.56;5069822;28;20587;-72
2023/10/18 04:35:45;;;;;;;9.53;5.03;;;;;;;10.50;89.59;94935.44;5069127;28;20273;-72
2023/10/18 04:41:23;;;;;;;6.60;5.30;;;;;;;10.45;89.30;94924.75;5057494;28;20190;-72
2023/10/18 04:43:56;;;;;;;7.05;5.15;;;;;;;10.53;89.65;94945.56;5059220;28;20416;-72
2023/10/18 04:46:26;;;;;;;8.67;5.17;;;;;;;10.41;89.77;94923.53;5049490;28;20309;-72
2023/10/18 04:51:33;;;;;;;6.13;4.60;;;;;;;10.28;90.03;94923.59;5060896;28;20187;-71
2023/10/18 04:54:08;;;;;;;7.10;5.40;;;;;;;10.37;90.30;94941.56;5049317;28;20178;-71
2023/10/18 04:56:38;;;;;;;7.23;5.60;;;;;;;10.25;90.34;94923.97;5065968;28;20245;-72
2023/10/18 05:04:32;;;;;;;5.00;4.30;;;;;;;10.39;89.53;94972.91;5053456;28;20417;-71
2023/10/18 05:07:00;;;;;;;4.70;3.77;;;;;;;10.32;90.02;94967.66;5052987;28;20182;-72
2023/10/18 05:12:16;;;;;;;5.67;4.57;;;;;;;10.40;90.16;94988.50;5047803;28;20189;-71
2023/10/18 05:14:43;;;;;;;8.33;4.97;;;;;;;10.43;90.44;94984.66;5048917;28;20202;-71
2023/10/18 05:17:10;;;;;;;6.10;4.53;;;;;;;10.45;90.26;94993.16;5048804;28;20829;-71
2023/10/18 05:19:42;;;;;;;6.23;5.00;;;;;;;10.47;90.17;94988.47;5049161;28;20198;-71
2023/10/18 05:22:35;;;;;;;7.37;5.27;;;;;;;10.55;90.55;94994.31;5047813;28;20213;-72
2023/10/18 05:28:00;;;;;;;11.30;7.20;;;;;;;10.58;90.94;95014.16;5063490;28;20420;-72
2023/10/18 05:33:16;;;;;;;7.40;5.37;;;;;;;10.59;90.39;95021.06;5053791;28;20676;-71
2023/10/18 05:35:45;;;;;;;11.37;5.90;;;;;;;10.69;90.49;95020.63;5068962;28;20247;-71
2023/10/18 05:40:56;;;;;;;6.20;4.50;;;;;;;10.76;90.32;95021.41;5068714;28;20185;-71
2023/10/18 05:43:22;;;;;;;5.63;4.17;;;;;;;10.79;89.18;95018.38;5068971;28;20182;-71
2023/10/18 05:46:08;;;;;;;6.85;4.63;;;;;;;10.78;88.38;95016.75;5067604;28;20479;-71
2023/10/18 05:48:40;;;;;;;5.55;4.50;;;;;;;10.76;88.39;95008.25;5068087;28;20420;-71
2023/10/18 05:53:51;;;;;;;4.53;3.80;;;;;;;10.80;88.02;95015.53;5048944;28;20186;-71
2023/10/18 05:56:24;;;;;;;6.97;3.83;;;;;;;10.68;88.66;94985.59;5048579;28;20947;-71
2023/10/18 05:59:16;;;;;;;6.33;3.83;;;;;;;10.70;87.95;94993.28;5061096;28;20194;-70
2023/10/18 06:01:39;;;;;;;4.83;3.63;;;;;;;10.39;88.64;94962.38;5047878;28;20672;-71
2023/10/18 06:04:05;;;;;;;11.77;4.67;;;;;;;10.71;88.92;95008.88;5048787;28;20175;-70
2023/10/18 06:06:30;;;;;;;5.07;3.50;;;;;;;10.74;88.46;95021.63;5057197;28;20193;-71
2023/10/18 06:09:07;;;;;;;4.45;3.60;;;;;;;10.53;88.13;95019.25;5048370;28;20508;-71
2023/10/18 06:11:36;;;;;;;5.37;4.13;;;;;;;10.21;89.17;94994.59;5048839;28;20640;-70
2023/10/18 06:14:05;;;;;;;6.97;3.97;;;;;;;10.26;90.35;95022.94;5048624;28;20175;-71
2023/10/18 06:16:35;;;;;;;6.87;4.23;;;;;;;10.26;90.31;95001.91;5048720;28;20175;-71
2023/10/18 06:19:06;;;;;;;6.27;3.93;;;;;;;10.35;90.05;95017.25;5047643;28;20202;-70
2023/10/18 06:21:38;;;;;;;4.70;3.60;;;;;;;10.31;89.33;94999.44;5049616;28;20324;-70
2023/10/18 06:24:16;;;;;;;6.60;3.80;;;;;;;10.43;89.08;95019.69;5052298;28;20179;-70
2023/10/18 06:26:44;;;;;;;4.10;3.63;;;;;;;10.34;89.18;95005.13;5052063;28;20174;-70
2023/10/18 06:29:11;;;;;;;8.23;4.17;;;;;;;10.33;88.94;95014.03;5052078;28;20207;-71
2023/10/18 06:31:42;;;;;;;4.37;3.87;;;;;;;10.39;88.95;95017.66;5052362;28;20174;-71
2023/10/18 06:34:15;;;;;;;4.83;3.50;;;;;;;10.49;89.49;95029.38;5052242;28;20232;-70
2023/10/18 06:36:40;;;;;;;6.97;4.47;;;;;;;10.68;88.81;95038.25;5050747;28;20182;-70
2023/10/18 06:39:06;;;;;;;4.73;3.90;;;;;;;10.70;88.08;95030.97;5051892;28;20195;-70
2023/10/18 06:41:32;;;;;;;6.47;4.20;;;;;;;10.50;88.23;95030.19;5051940;28;20182;-71
2023/10/18 06:44:00;;;;;;;4.57;3.47;;;;;;;10.25;88.78;95011.59;5071458;28;20218;-71
2023/10/18 06:46:30;;;;;;;5.00;3.67;;;;;;;10.35;90.03;95033.06;5071607;28;20197;-70
2023/10/18 06:48:59;;;;;;;9.33;4.40;;;;;;;10.55;90.13;95039.06;5071505;28;20159;-70
2023/10/18 06:51:33;;;;;;;7.40;4.30;;;;;;;10.73;89.05;95027.88;5071628;28;20175;-72
2023/10/18 06:54:05;;;;;;;5.73;4.33;;;;;;;10.86;87.43;95034.94;5071654;28;20186;-72
2023/10/18 06:56:39;;;;;;;5.90;4.80;;;;;;;10.88;87.30;95025.84;5071346;28;20676;-72
2023/10/18 06:59:11;;;;;;;7.87;4.57;;;;;;;11.09;86.99;95035.25;5055377;28;20195;-73
2023/10/18 07:04:35;;;;;;;6.83;4.23;;;;;;;11.30;85.56;95055.25;5038748;28;20344;-71
2023/10/18 07:07:11;;;;;;;5.17;4.07;;;;;;;11.29;85.67;95043.09;5051429;28;20167;-71
2023/10/18 07:09:37;;;;;;;7.80;4.73;;;;;;;11.36;86.06;95030.69;5051177;28;20175;-71
2023/10/18 07:12:03;;;;;;;6.20;4.67;;;;;;;11.47;84.53;95043.19;5051622;28;20202;-71
2023/10/18 07:14:32;;;;;;;6.07;3.77;;;;;;;11.64;84.46;95054.84;5051081;28;20521;-71
2023/10/18 07:17:00;;;;;;;7.43;4.30;;;;;;;11.71;83.77;95060.09;5051170;28;20541;-71
2023/10/18 07:19:27;;;;;;;6.90;4.23;;;;;;;11.80;84.42;95056.19;5051025;28;20187;-71
2023/10/18 07:22:06;;;;;;;6.60;4.60;;;;;;;11.94;83.32;95059.53;5057393;28;20177;-71
2023/10/18 07:24:34;;;;;;;6.77;4.40;;;;;;;12.04;82.82;95060.69;5068644;28;20174;-71
2023/10/18 07:27:03;;;;;;;7.37;4.73;;;;;;;11.91;82.56;95052.88;5050715;28;20713;-71
2023/10/18 07:29:29;;;;;;;8.43;4.77;;;;;;;11.82;83.05;95058.63;5050911;28;20163;-72
2023/10/18 07:31:59;;;;;;;6.20;4.50;;;;;;;11.74;83.57;95038.56;5050589;28;20178;-72
2023/10/18 07:34:36;;;;;;;6.37;4.90;;;;;;;11.95;83.87;95055.88;5051013;28;20201;-72
2023/10/18 07:37:17;;;;;;;6.43;4.87;;;;;;;12.10;84.12;95051.13;5050799;28;20634;-72
2023/10/18 07:39:49;;;;;;;7.37;5.30;;;;;;;12.25;81.86;95051.59;5050471;28;20260;-71
2023/10/18 07:42:18;;;;;;;7.97;5.10;;;;;;;12.30;81.36;95054.41;5050679;28;20262;-72
2023/10/18 07:44:53;;;;;;;13.53;4.50;;;;;;;12.16;80.75;95052.91;5050372;28;20183;-71
2023/10/18 07:47:19;;;;;;;6.33;4.53;;;;;;;12.08;81.15;95046.06;5049001;28;20198;-70
2023/10/18 07:49:45;;;;;;;5.90;4.20;;;;;;;12.00;81.47;95032.31;5049200;28;20179;-71
2023/10/18 07:52:11;;;;;;;7.17;4.83;;;;;;;12.21;82.12;95044.31;5050161;28;20187;-71
2023/10/18 07:54:37;;;;;;;7.10;4.73;;;;;;;12.18;80.94;95037.66;5050313;28;20193;-70
2023/10/18 07:57:02;;;;;;;8.43;4.00;;;;;;;12.29;81.55;95047.50;5050288;28;20222;-71
2023/10/18 07:59:28;;;;;;;7.03;4.57;;;;;;;12.35;80.12;95045.84;5050132;28;20218;-70
2023/10/18 08:04:37;;;;;;;6.43;4.30;;;;;;;12.41;79.87;95042.31;5050020;28;20179;-69
2023/10/18 08:07:04;;;;;;;8.17;4.77;;;;;;;12.41;79.65;95039.69;5050202;28;20245;-70
2023/10/18 08:09:30;;;;;;;5.83;4.53;;;;;;;12.55;79.07;95056.19;5049911;28;20779;-70
2023/10/18 08:12:00;;;;;;;10.37;4.43;;;;;;;12.59;78.64;95052.13;5049782;28;20270;-70
2023/10/18 08:14:26;;;;;;;6.63;4.70;;;;;;;12.61;78.88;95050.06;5050024;28;20186;-70
2023/10/18 08:17:09;;;;;;;5.83;4.07;;;;;;;12.64;78.54;95049.63;5049137;28;20259;-70
2023/10/18 08:19:44;;;;;;;5.53;4.00;;;;;;;12.71;78.14;95053.81;5049561;28;20234;-70
2023/10/18 08:24:41;;;;;;;6.53;4.40;;;;;;;12.74;77.83;95052.56;5049928;28;20253;-70
2023/10/18 08:27:09;;;;;;;6.50;4.07;;;;;;;12.88;77.73;95053.25;5049115;28;20169;-70
2023/10/18 08:29:36;;;;;;;5.50;4.20;;;;;;;12.83;77.44;95043.31;5047532;28;20210;-70
2023/10/18 08:32:14;;;;;;;4.13;3.63;;;;;;;12.82;77.29;95055.72;5050016;28;20669;-70
2023/10/18 08:34:48;;;;;;;4.17;3.70;;;;;;;12.78;76.95;95064.31;5050111;28;20190;-71
2023/10/18 08:37:14;;;;;;;5.27;4.20;;;;;;;12.87;77.88;95062.19;5053024;28;20240;-71
2023/10/18 08:39:55;;;;;;;6.13;3.97;;;;;;;12.92;76.83;95062.34;5069382;28;20198;-71
2023/10/18 08:42:33;;;;;;;6.13;4.30;;;;;;;13.07;76.70;95054.84;5055915;28;20179;-71
2023/10/18 08:45:04;;;;;;;6.70;4.47;;;;;;;13.09;76.47;95058.88;5047971;28;20179;-71
2023/10/18 08:47:34;;;;;;;4.97;3.53;;;;;;;12.83;76.11;95065.28;5048381;28;20558;-71
2023/10/18 08:50:00;;;;;;;4.97;3.93;;;;;;;12.91;76.51;95068.66;5047258;28;20257;-71
2023/10/18 08:52:34;;;;;;;6.30;4.33;;;;;;;12.94;76.94;95055.00;5047918;28;20175;-71
2023/10/18 08:55:19;;;;;;;10.30;4.37;;;;;;;13.10;75.80;95052.56;5048042;28;20723;-71
2023/10/18 08:57:46;;;;;;;5.60;4.10;;;;;;;13.18;75.28;95060.22;5047365;28;20229;-70
2023/10/18 09:02:53;;;;;;;4.53;3.77;;;;;;;13.23;74.77;95068.28;5048222;28;20170;-71
2023/10/18 09:05:22;;;;;;;6.30;3.73;;;;;;;13.16;75.45;95070.22;5048366;28;20187;-71
2023/10/18 09:07:53;;;;;;;4.23;3.67;;;;;;;13.23;75.52;95072.00;5048237;28;20167;-71
2023/10/18 09:16:01;;;;;;;5.17;3.90;;;;;;;13.30;75.13;95076.16;5047412;28;20205;-71
2023/10/18 09:18:31;;;;;;;6.43;3.73;;;;;;;13.06;75.32;95071.75;5050449;28;20721;-71
2023/10/18 09:23:40;;;;;;;6.23;4.20;;;;;;;13.19;75.38;95067.13;5046654;28;20261;-71
2023/10/18 09:26:12;;;;;;;5.13;3.87;;;;;;;13.41;75.58;95083.34;5047232;28;20209;-71
2023/10/18 09:28:41;;;;;;;4.60;3.77;;;;;;;13.54;75.97;95082.38;5048719;28;20194;-71
2023/10/18 09:31:10;;;;;;;8.07;4.27;;;;;;;13.65;75.09;95083.47;5048959;28;20874;-71
2023/10/18 09:33:48;;;;;;;5.33;4.00;;;;;;;13.82;74.31;95081.81;5048861;28;20648;-71
2023/10/18 09:36:19;;;;;;;5.03;3.57;;;;;;;13.89;73.23;95070.09;5048802;28;20186;-71
2023/10/18 09:38:46;;;;;;;5.03;4.20;;;;;;;13.84;72.34;95069.94;5048497;28;20226;-71
2023/10/18 09:41:12;;;;;;;5.03;4.00;;;;;;;13.60;73.21;95069.06;5048479;28;20179;-71
2023/10/18 09:43:38;;;;;;;26.13;15.93;;;;;;;13.55;74.26;95076.06;5048601;28;20170;-71
2023/10/18 09:46:04;;;;;;;30.37;18.23;;;;;;;13.55;74.67;95065.47;5048858;28;20175;-71
2023/10/18 09:48:41;;;;;;;6.03;4.30;;;;;;;13.42;74.19;95063.00;5048595;28;20168;-71
2023/10/18 09:51:10;;;;;;;4.87;3.80;;;;;;;13.17;75.13;95061.25;5048744;28;20190;-71
2023/10/18 09:53:43;;;;;;;6.53;5.10;;;;;;;13.26;75.80;95063.59;5048695;28;20563;-71
2023/10/18 09:56:13;;;;;;;5.40;4.30;;;;;;;13.30;75.61;95047.09;5048840;28;20360;-71
2023/10/18 09:58:44;;;;;;;7.33;4.63;;;;;;;13.49;75.13;95055.81;5052509;28;20205;-71
2023/10/18 10:01:30;;;;;;;5.40;4.27;;;;;;;13.39;74.79;95052.88;5052319;28;20183;-71
2023/10/18 10:03:56;;;;;;;5.37;4.53;;;;;;;13.46;75.19;95051.75;5052698;28;20163;-71
2023/10/18 10:06:26;;;;;;;6.00;4.33;;;;;;;13.63;74.87;95043.19;5052392;28;20229;-71
2023/10/18 10:09:18;;;;;;;7.40;4.13;;;;;;;13.84;73.92;95040.84;5052419;28;20183;-71
2023/10/18 10:11:47;;;;;;;6.17;4.27;;;;;;;13.88;73.12;95026.13;5052430;28;20244;-71
2023/10/18 10:14:17;;;;;;;5.77;4.57;;;;;;;13.92;73.53;95018.56;5052252;28;20218;-71
2023/10/18 10:16:52;;;;;;;7.93;3.90;;;;;;;14.08;72.50;95025.81;5051630;28;20228;-71
2023/10/18 10:19:24;;;;;;;7.63;5.10;;;;;;;14.11;73.05;95029.84;5051383;28;20194;-71
2023/10/18 10:21:50;;;;;;;9.03;4.87;;;;;;;13.96;72.80;95019.69;5071488;28;20581;-71
2023/10/18 10:24:29;;;;;;;6.33;4.07;;;;;;;13.93;72.96;95007.72;5071414;28;20186;-71
2023/10/18 10:30:47;;;;;;;6.23;4.10;;;;;;;14.20;72.31;95008.09;5069550;28;20169;-71
2023/10/18 10:32:52;;;;;;;5.70;3.90;;;;;;;14.01;72.55;94995.22;5068750;28;20703;-71
2023/10/18 10:35:28;;;;;;;8.33;4.20;;;;;;;14.17;73.32;95015.72;5069373;28;20185;-71
2023/10/18 10:38:13;;;;;;;6.13;3.70;;;;;;;14.27;72.99;95010.66;5069240;28;20680;-71
2023/10/18 10:40:44;;;;;;;5.93;4.23;;;;;;;13.84;73.08;95002.97;5069850;28;20174;-71
2023/10/18 10:43:11;;;;;;;6.90;4.67;;;;;;;13.70;73.77;94996.28;5070827;28;20212;-71
2023/10/18 10:45:41;;;;;;;5.27;4.13;;;;;;;13.74;73.80;95006.19;5070849;28;20171;-71
2023/10/18 10:48:16;;;;;;;5.53;4.37;;;;;;;13.72;73.63;95016.19;5071374;28;20178;-71
2023/10/18 10:50:42;;;;;;;6.83;3.93;;;;;;;13.65;74.10;95014.69;5070524;28;20177;-71
2023/10/18 10:53:11;;;;;;;5.97;4.03;;;;;;;13.61;74.25;95009.03;5070726;28;20162;-71
2023/10/18 10:55:38;;;;;;;5.53;3.97;;;;;;;13.71;74.58;95009.28;5070630;28;20652;-71
2023/10/18 10:58:16;;;;;;;6.03;3.97;;;;;;;13.79;74.11;95021.38;5070374;28;20313;-71
2023/10/18 11:01:08;;;;;;;5.77;4.17;;;;;;;13.75;74.07;95009.66;5070886;28;20186;-71
2023/10/18 11:03:54;;;;;;;5.57;3.87;;;;;;;13.76;74.50;95012.06;5070478;28;20178;-70
2023/10/18 11:06:23;;;;;;;4.43;3.00;;;;;;;13.75;73.38;95007.78;5070373;28;20184;-71
2023/10/18 11:08:53;;;;;;;5.40;3.40;;;;;;;13.81;74.15;95009.56;5069898;28;20177;-71
2023/10/18 11:11:22;;;;;;;5.63;3.77;;;;;;;13.88;74.48;95010.25;5070343;28;20182;-71
2023/10/18 11:13:51;;;;;;;6.67;3.93;;;;;;;13.98;74.20;95013.16;5070412;28;21144;-71
2023/10/18 11:16:24;;;;;;;5.87;3.60;;;;;;;14.02;73.96;95010.84;5070461;28;20170;-71
2023/10/18 11:18:49;;;;;;;4.97;3.83;;;;;;;14.00;74.04;95014.75;5070238;28;20746;-70
2023/10/18 11:21:29;;;;;;;4.80;3.83;;;;;;;13.89;73.76;94993.34;5070237;28;20265;-70
2023/10/18 11:24:10;;;;;;;5.20;3.93;;;;;;;13.91;73.32;95001.88;5070219;28;20197;-70
2023/10/18 11:26:41;;;;;;;6.27;4.43;;;;;;;13.90;73.55;95008.19;5070175;28;20177;-70
2023/10/18 11:29:06;;;;;;;4.47;3.70;;;;;;;13.83;74.05;95009.31;5070083;28;20211;-70
2023/10/18 11:31:33;;;;;;;5.77;3.80;;;;;;;13.83;74.57;95004.03;5069851;28;20249;-70
2023/10/18 11:34:07;;;;;;;5.47;4.13;;;;;;;13.89;74.63;95003.94;5069811;28;20265;-70
2023/10/18 11:36:38;;;;;;;7.20;4.27;;;;;;;13.97;74.93;95002.78;5069824;28;20162;-70
2023/10/18 11:39:07;;;;;;;10.10;4.90;;;;;;;14.07;74.40;95008.34;5068511;28;20251;-70
2023/10/18 11:41:36;;;;;;;6.10;4.77;;;;;;;14.11;74.27;94993.59;5069753;28;20182;-70
2023/10/18 11:44:06;;;;;;;5.53;4.10;;;;;;;14.19;73.75;94998.53;5068570;28;20582;-70
2023/10/18 11:46:51;;;;;;;6.13;3.90;;;;;;;14.21;73.19;94985.88;5069631;28;20170;-70
2023/10/18 11:49:20;;;;;;;6.97;4.33;;;;;;;14.08;73.70;94983.47;5069508;28;20170;-70
2023/10/18 11:51:48;;;;;;;10.03;4.57;;;;;;;14.06;73.94;94984.72;5069613;28;20212;-70
2023/10/18 11:54:28;;;;;;;7.13;4.73;;;;;;;14.05;74.24;94989.22;5068364;28;20175;-70
2023/10/18 11:56:56;;;;;;;7.00;4.47;;;;;;;14.10;74.41;94991.97;5069099;28;20241;-70
2023/10/18 11:59:25;;;;;;;6.13;4.53;;;;;;;14.13;74.46;94986.22;5069333;28;20182;-70
2023/10/18 12:01:55;;;;;;;12.53;4.43;;;;;;;14.22;74.03;94998.09;5069178;28;20209;-70
2023/10/18 12:04:27;;;;;;;7.23;4.40;;;;;;;14.19;73.38;94987.13;5069234;28;20269;-70
2023/10/18 12:06:53;;;;;;;7.10;4.10;;;;;;;14.17;73.69;94994.53;5067986;28;20179;-70
2023/10/18 12:11:44;;;;;;;8.10;4.73;;;;;;;14.29;73.88;94993.47;5069397;28;20779;-70
2023/10/18 12:14:10;;;;;;;6.00;4.40;;;;;;;14.42;72.79;94995.13;5069091;28;20179;-70
2023/10/18 12:16:35;;;;;;;7.50;4.03;;;;;;;14.39;72.90;94994.78;5069087;28;20197;-70
2023/10/18 12:19:01;;;;;;;6.90;4.67;;;;;;;14.42;73.53;94992.50;5068206;28;20692;-70
2023/10/18 12:21:29;;;;;;;6.87;4.53;;;;;;;14.52;72.78;94997.22;5069021;28;20200;-70
2023/10/18 12:23:56;;;;;;;6.93;4.73;;;;;;;14.42;72.98;94995.13;5068996;28;20227;-70
2023/10/18 12:26:25;;;;;;;6.47;4.63;;;;;;;14.38;73.19;94978.06;5067568;28;20182;-71
2023/10/18 12:28:55;;;;;;;7.93;4.87;;;;;;;14.54;72.89;94998.56;5068777;28;20178;-70
2023/10/18 12:31:26;;;;;;;7.63;5.03;;;;;;;14.46;72.54;94998.91;5069307;28;20201;-70
2023/10/18 12:34:02;;;;;;;6.83;4.27;;;;;;;14.34;72.66;94998.09;5068742;28;20200;-70
2023/10/18 12:36:40;;;;;;;6.93;5.03;;;;;;;14.33;72.88;94991.19;5068816;28;20163;-70
2023/10/18 12:39:09;;;;;;;6.30;4.80;;;;;;;14.27;73.35;94994.78;5068566;28;20208;-70
2023/10/18 12:41:41;;;;;;;6.53;4.30;;;;;;;14.11;73.98;94993.59;5068624;28;20171;-70
2023/10/18 12:44:18;;;;;;;8.93;4.60;;;;;;;14.08;74.16;94994.06;5068673;28;20338;-70
2023/10/18 12:46:45;;;;;;;5.70;4.60;;;;;;;14.14;73.76;94992.34;5068846;28;20174;-70
2023/10/18 12:49:11;;;;;;;6.40;4.67;;;;;;;13.97;73.96;94976.31;5062248;28;20614;-71
2023/10/18 12:51:42;;;;;;;6.27;4.40;;;;;;;14.05;74.54;94988.41;5049075;28;20185;-71
2023/10/18 12:54:10;;;;;;;5.47;3.67;;;;;;;14.00;74.50;94980.34;5048614;28;20186;-70
2023/10/18 12:56:40;;;;;;;8.57;5.27;;;;;;;13.95;75.00;94987.13;5048714;28;20569;-71